Time;durP1;ratioP1;P1;durP2;ratioP2;P2;SDS_P1;SDS_P2;PMS_P1;PMS_P2;Temp;Humidity;BMP_temperature;BMP_pressure;BME280_temperature;BME280_humidity;BME280_pressure;Samples;Min_cycle;Max_cycle;Signal;HPM_P1;HPM_P2
2021/12/27 00:00:54;;;;;;;7.17;5.60;;;;;;;;;;5096227;28;20411;-74
2021/12/27 00:03:20;;;;;;;6.20;5.50;;;;;;;;;;5096293;28;20407;-74
2021/12/27 00:05:46;;;;;;;8.47;5.40;;;;;;;;;;5096212;28;20416;-73
2021/12/27 00:08:14;;;;;;;7.00;5.50;;;;;;;;;;5096060;28;21110;-72
2021/12/27 00:10:40;;;;;;;6.50;5.20;;;;;;;;;;5096114;28;20455;-73
2021/12/27 00:13:07;;;;;;;5.87;5.10;;;;;;;;;;5094907;28;20752;-74
2021/12/27 00:15:33;;;;;;;5.80;5.13;;;;;;;;;;5096108;28;20428;-72
2021/12/27 00:17:59;;;;;;;7.27;5.40;;;;;;;;;;5096108;28;20473;-73
2021/12/27 00:20:27;;;;;;;7.40;5.70;;;;;;;;;;5095925;28;20415;-74
2021/12/27 00:22:53;;;;;;;8.63;5.83;;;;;;;;;;5095998;28;20514;-73
2021/12/27 00:25:20;;;;;;;7.60;5.73;;;;;;;;;;5095971;28;20564;-73
2021/12/27 00:27:47;;;;;;;7.57;6.13;;;;;;;;;;5095963;28;20453;-73
2021/12/27 00:30:15;;;;;;;8.83;5.70;;;;;;;;;;5095709;28;20404;-72
2021/12/27 00:32:43;;;;;;;6.70;5.27;;;;;;;;;;5095767;28;20409;-73
2021/12/27 00:35:10;;;;;;;8.47;6.50;;;;;;;;;;5095861;28;20871;-72
2021/12/27 00:37:36;;;;;;;8.03;6.00;;;;;;;;;;5095614;28;20435;-73
2021/12/27 00:40:04;;;;;;;6.07;4.93;;;;;;;;;;5095439;28;20414;-73
2021/12/27 00:42:30;;;;;;;7.57;5.53;;;;;;;;;;5095544;28;20420;-73
2021/12/27 00:44:56;;;;;;;7.60;5.47;;;;;;;;;;5095507;28;20400;-72
2021/12/27 00:47:22;;;;;;;7.27;6.00;;;;;;;;;;5094045;28;20422;-73
2021/12/27 00:49:48;;;;;;;5.90;5.30;;;;;;;;;;5095351;28;20818;-73
2021/12/27 00:52:14;;;;;;;7.53;5.83;;;;;;;;;;5095270;28;20516;-73
2021/12/27 00:54:40;;;;;;;8.57;6.13;;;;;;;;;;5095388;28;20423;-73
2021/12/27 00:57:06;;;;;;;8.60;5.50;;;;;;;;;;5095479;28;20388;-73
2021/12/27 00:59:32;;;;;;;10.00;5.43;;;;;;;;;;5093869;28;20875;-73
2021/12/27 01:01:58;;;;;;;7.47;5.30;;;;;;;;;;5095311;28;20400;-73
2021/12/27 01:04:24;;;;;;;7.63;5.70;;;;;;;;;;5095299;28;20400;-71
2021/12/27 01:06:50;;;;;;;10.40;5.43;;;;;;;;;;5094000;28;20459;-73
2021/12/27 01:09:30;;;;;;;7.93;5.97;;;;;;;;;;5094039;28;20419;-73
2021/12/27 01:15:06;;;;;;;8.87;6.63;;;;;;;;;;5095456;28;20454;-73
2021/12/27 01:17:27;;;;;;;7.77;5.60;;;;;;;;;;5095072;28;20764;-73
2021/12/27 01:19:53;;;;;;;7.97;5.70;;;;;;;;;;5093711;28;20430;-73
2021/12/27 01:22:19;;;;;;;9.80;5.60;;;;;;;;;;5094769;28;20408;-73
2021/12/27 01:24:45;;;;;;;7.83;5.90;;;;;;;;;;5093469;28;20420;-73
2021/12/27 01:27:11;;;;;;;8.37;6.10;;;;;;;;;;5094687;28;20503;-72
2021/12/27 01:29:37;;;;;;;12.53;6.40;;;;;;;;;;5094553;28;20920;-72
2021/12/27 01:32:03;;;;;;;7.83;6.17;;;;;;;;;;5093341;28;20554;-73
2021/12/27 01:34:31;;;;;;;8.63;6.50;;;;;;;;;;5093229;28;20408;-72
2021/12/27 01:36:57;;;;;;;9.23;6.20;;;;;;;;;;5093217;28;20430;-73
2021/12/27 01:39:24;;;;;;;10.43;6.87;;;;;;;;;;5094457;28;20439;-73
2021/12/27 01:41:50;;;;;;;11.93;6.50;;;;;;;;;;5094390;28;20507;-73
2021/12/27 01:44:16;;;;;;;10.43;6.07;;;;;;;;;;5094228;28;20410;-72
2021/12/27 01:46:42;;;;;;;9.10;6.50;;;;;;;;;;5093120;28;20511;-72
2021/12/27 01:49:08;;;;;;;9.27;6.67;;;;;;;;;;5093042;28;20464;-72
2021/12/27 01:51:38;;;;;;;9.53;6.40;;;;;;;;;;5094188;28;20459;-72
2021/12/27 01:54:04;;;;;;;8.73;6.63;;;;;;;;;;5094267;28;20388;-73
2021/12/27 01:56:31;;;;;;;9.03;6.80;;;;;;;;;;5092834;28;20411;-73
2021/12/27 01:58:57;;;;;;;9.13;6.60;;;;;;;;;;5092021;28;20467;-73
2021/12/27 02:01:23;;;;;;;8.50;6.23;;;;;;;;;;5094097;28;20522;-73
2021/12/27 02:03:51;;;;;;;9.30;6.37;;;;;;;;;;5093932;28;20403;-73
2021/12/27 02:06:17;;;;;;;7.63;6.40;;;;;;;;;;5094024;28;20392;-72
2021/12/27 02:08:44;;;;;;;8.17;6.03;;;;;;;;;;5093883;28;20455;-71
2021/12/27 02:11:11;;;;;;;11.03;6.63;;;;;;;;;;5093694;28;20459;-72
2021/12/27 02:13:42;;;;;;;9.77;6.60;;;;;;;;;;5093790;28;20408;-71
2021/12/27 02:16:09;;;;;;;10.67;7.77;;;;;;;;;;5092566;28;20894;-71
2021/12/27 02:18:37;;;;;;;8.77;6.07;;;;;;;;;;5093862;28;20941;-72
2021/12/27 02:21:03;;;;;;;10.10;6.57;;;;;;;;;;5093754;28;20870;-71
2021/12/27 02:23:29;;;;;;;7.80;5.93;;;;;;;;;;5093565;28;20457;-73
2021/12/27 02:25:55;;;;;;;9.77;5.97;;;;;;;;;;5093711;28;20771;-72
2021/12/27 02:28:21;;;;;;;7.20;5.97;;;;;;;;;;5093568;28;20487;-73
2021/12/27 02:30:50;;;;;;;10.23;6.50;;;;;;;;;;5092315;28;20514;-71
2021/12/27 02:33:16;;;;;;;7.90;6.30;;;;;;;;;;5093607;28;20863;-72
2021/12/27 02:35:43;;;;;;;8.20;6.53;;;;;;;;;;5093598;28;20415;-72
2021/12/27 02:38:11;;;;;;;8.87;6.33;;;;;;;;;;5093414;28;20473;-72
2021/12/27 02:40:37;;;;;;;9.60;6.93;;;;;;;;;;5093507;28;21012;-72
2021/12/27 02:43:07;;;;;;;9.10;6.60;;;;;;;;;;5093524;28;20415;-71
2021/12/27 02:45:53;;;;;;;5.97;5.37;;;;;;;;;;5093492;28;20545;-72
2021/12/27 02:48:21;;;;;;;6.20;5.20;;;;;;;;;;5093207;28;20798;-72
2021/12/27 02:50:47;;;;;;;7.20;5.17;;;;;;;;;;5093214;28;20913;-72
2021/12/27 02:53:14;;;;;;;10.83;5.60;;;;;;;;;;5092175;28;20813;-72
2021/12/27 02:55:41;;;;;;;7.87;5.70;;;;;;;;;;5092042;28;20491;-72
2021/12/27 02:58:07;;;;;;;6.43;5.17;;;;;;;;;;5091735;28;20558;-71
2021/12/27 03:00:38;;;;;;;8.03;5.50;;;;;;;;;;5091858;28;20427;-71
2021/12/27 03:03:04;;;;;;;8.13;5.20;;;;;;;;;;5091887;28;20411;-70
2021/12/27 03:05:31;;;;;;;7.03;5.00;;;;;;;;;;5093215;28;20423;-71
2021/12/27 03:07:58;;;;;;;8.03;5.50;;;;;;;;;;5093199;28;20452;-71
2021/12/27 03:10:26;;;;;;;5.63;4.50;;;;;;;;;;5094837;28;20453;-70
2021/12/27 03:12:52;;;;;;;7.10;5.43;;;;;;;;;;5096073;28;20447;-70
2021/12/27 03:15:20;;;;;;;6.37;5.27;;;;;;;;;;5095975;28;20431;-70
2021/12/27 03:17:47;;;;;;;5.57;4.50;;;;;;;;;;5097318;28;20418;-70
2021/12/27 03:20:13;;;;;;;6.13;4.80;;;;;;;;;;5097141;28;20403;-70
2021/12/27 03:22:43;;;;;;;6.50;4.93;;;;;;;;;;5095733;28;20832;-70
2021/12/27 03:25:10;;;;;;;7.50;4.57;;;;;;;;;;5095838;28;20431;-70
2021/12/27 03:27:37;;;;;;;5.43;4.50;;;;;;;;;;5095783;28;20408;-70
2021/12/27 03:30:07;;;;;;;6.33;4.77;;;;;;;;;;5096983;28;20461;-70
2021/12/27 03:32:35;;;;;;;6.23;4.53;;;;;;;;;;5096909;28;20467;-70
2021/12/27 03:35:08;;;;;;;4.33;3.83;;;;;;;;;;5095866;28;20476;-70
2021/12/27 03:37:35;;;;;;;6.47;4.47;;;;;;;;;;5095431;28;20497;-70
2021/12/27 03:40:01;;;;;;;9.60;5.50;;;;;;;;;;5095629;28;20404;-70
2021/12/27 03:42:27;;;;;;;6.70;4.63;;;;;;;;;;5096149;28;20814;-70
2021/12/27 03:44:53;;;;;;;5.50;4.30;;;;;;;;;;5096752;28;20496;-70
2021/12/27 03:47:19;;;;;;;4.83;4.13;;;;;;;;;;5095404;28;20406;-70
2021/12/27 03:49:45;;;;;;;6.77;4.20;;;;;;;;;;5096637;28;20438;-70
2021/12/27 03:52:11;;;;;;;5.27;3.90;;;;;;;;;;5096500;28;20474;-70
2021/12/27 03:54:37;;;;;;;5.40;4.13;;;;;;;;;;5096555;28;20395;-70
2021/12/27 03:57:03;;;;;;;6.20;4.00;;;;;;;;;;5096614;28;20404;-70
2021/12/27 04:02:13;;;;;;;4.37;3.57;;;;;;;;;;5096341;28;20403;-71
2021/12/27 04:04:40;;;;;;;4.63;4.10;;;;;;;;;;5096480;28;20424;-70
2021/12/27 04:07:07;;;;;;;5.60;4.10;;;;;;;;;;5094896;28;20449;-70
2021/12/27 04:09:34;;;;;;;6.23;4.00;;;;;;;;;;5096282;28;20898;-71
2021/12/27 04:12:00;;;;;;;6.13;3.90;;;;;;;;;;5096240;28;20498;-72
2021/12/27 04:14:26;;;;;;;5.77;3.50;;;;;;;;;;5095009;28;20412;-71
2021/12/27 04:16:52;;;;;;;4.63;3.37;;;;;;;;;;5096125;28;20407;-71
2021/12/27 04:19:18;;;;;;;4.67;3.37;;;;;;;;;;5096105;28;20463;-71
2021/12/27 04:21:44;;;;;;;5.67;3.73;;;;;;;;;;5095328;28;20899;-72
2021/12/27 04:24:10;;;;;;;5.83;3.60;;;;;;;;;;5095965;28;20537;-72
2021/12/27 04:26:37;;;;;;;5.53;3.33;;;;;;;;;;5094673;28;20557;-72
2021/12/27 04:29:03;;;;;;;5.10;3.87;;;;;;;;;;5094666;28;20430;-72
2021/12/27 04:31:30;;;;;;;4.90;3.67;;;;;;;;;;5094534;28;20501;-72
2021/12/27 04:33:56;;;;;;;3.07;2.77;;;;;;;;;;5095807;28;20400;-73
2021/12/27 04:36:22;;;;;;;4.10;3.00;;;;;;;;;;5095699;28;20427;-72
2021/12/27 04:38:48;;;;;;;4.23;3.23;;;;;;;;;;5095720;28;20444;-72
2021/12/27 04:41:18;;;;;;;3.83;3.50;;;;;;;;;;5095698;28;20400;-72
2021/12/27 04:43:44;;;;;;;4.33;3.27;;;;;;;;;;5095840;28;20396;-72
2021/12/27 04:46:10;;;;;;;3.97;2.77;;;;;;;;;;5094506;28;20435;-72
2021/12/27 04:48:36;;;;;;;3.53;3.23;;;;;;;;;;5095470;28;20400;-72
2021/12/27 04:51:02;;;;;;;3.60;2.97;;;;;;;;;;5095369;28;20966;-73
2021/12/27 04:53:28;;;;;;;3.40;3.10;;;;;;;;;;5095428;28;20407;-72
2021/12/27 04:55:54;;;;;;;2.80;2.43;;;;;;;;;;5095227;28;20396;-72
2021/12/27 04:58:22;;;;;;;3.00;2.70;;;;;;;;;;5095149;28;20455;-70
2021/12/27 05:00:49;;;;;;;3.87;2.50;;;;;;;;;;5095156;28;20415;-71
2021/12/27 05:03:15;;;;;;;3.20;2.90;;;;;;;;;;5095272;28;20747;-70
2021/12/27 05:05:44;;;;;;;3.33;2.50;;;;;;;;;;5095209;28;20391;-70
2021/12/27 05:08:10;;;;;;;2.90;2.60;;;;;;;;;;5093845;28;20428;-70
2021/12/27 05:10:37;;;;;;;2.67;2.27;;;;;;;;;;5095008;28;20448;-71
2021/12/27 05:13:03;;;;;;;3.60;3.00;;;;;;;;;;5095007;28;20422;-72
2021/12/27 05:15:29;;;;;;;3.13;2.63;;;;;;;;;;5094987;28;20750;-73
2021/12/27 05:17:55;;;;;;;2.57;2.10;;;;;;;;;;5094820;28;20415;-71
2021/12/27 05:20:22;;;;;;;3.10;2.70;;;;;;;;;;5094823;28;20396;-73
2021/12/27 05:22:48;;;;;;;3.63;2.80;;;;;;;;;;5093488;28;20473;-71
2021/12/27 05:25:16;;;;;;;3.30;2.30;;;;;;;;;;5093418;28;20796;-72
2021/12/27 05:27:42;;;;;;;2.50;2.30;;;;;;;;;;5093339;28;20530;-73
2021/12/27 05:30:08;;;;;;;2.57;2.37;;;;;;;;;;5093225;28;20388;-70
2021/12/27 05:32:35;;;;;;;2.37;1.97;;;;;;;;;;5094541;28;20459;-73
2021/12/27 05:35:02;;;;;;;2.87;2.67;;;;;;;;;;5093574;28;20404;-72
2021/12/27 05:37:29;;;;;;;2.77;2.57;;;;;;;;;;5093061;28;20439;-73
2021/12/27 05:39:55;;;;;;;2.40;2.20;;;;;;;;;;5094452;28;20430;-72
2021/12/27 05:42:21;;;;;;;2.90;2.67;;;;;;;;;;5094400;28;20408;-72
2021/12/27 05:44:47;;;;;;;2.73;2.33;;;;;;;;;;5093033;28;20415;-72
2021/12/27 05:47:13;;;;;;;2.40;2.20;;;;;;;;;;5094450;28;20416;-73
2021/12/27 05:49:39;;;;;;;2.90;2.50;;;;;;;;;;5094277;28;20400;-72
2021/12/27 05:52:06;;;;;;;2.73;2.53;;;;;;;;;;5094200;28;20846;-72
2021/12/27 05:54:32;;;;;;;2.93;2.63;;;;;;;;;;5094280;28;20457;-72
2021/12/27 05:56:58;;;;;;;3.70;2.60;;;;;;;;;;5092921;28;20508;-72
2021/12/27 05:59:24;;;;;;;2.70;2.50;;;;;;;;;;5093907;28;20509;-70
2021/12/27 06:01:50;;;;;;;2.90;2.70;;;;;;;;;;5093964;28;20889;-70
2021/12/27 06:04:16;;;;;;;2.90;2.70;;;;;;;;;;5094111;28;20436;-71
2021/12/27 06:06:42;;;;;;;4.40;2.90;;;;;;;;;;5093933;28;20461;-70
2021/12/27 06:09:08;;;;;;;3.17;2.90;;;;;;;;;;5094114;28;20951;-71
2021/12/27 06:11:34;;;;;;;3.30;3.00;;;;;;;;;;5092704;28;20494;-70
2021/12/27 06:14:00;;;;;;;3.20;2.90;;;;;;;;;;5092732;28;20404;-71
2021/12/27 06:16:26;;;;;;;2.37;2.20;;;;;;;;;;5093938;28;20498;-70
2021/12/27 06:18:52;;;;;;;3.77;2.33;;;;;;;;;;5094002;28;20404;-72
2021/12/27 06:21:18;;;;;;;4.00;2.70;;;;;;;;;;5093687;28;20883;-71
2021/12/27 06:23:46;;;;;;;4.73;2.80;;;;;;;;;;5092473;28;20411;-71
2021/12/27 06:26:12;;;;;;;5.10;3.93;;;;;;;;;;5093735;28;20465;-71
2021/12/27 06:28:38;;;;;;;3.30;3.00;;;;;;;;;;5093685;28;20789;-70
2021/12/27 06:31:05;;;;;;;2.97;2.57;;;;;;;;;;5093529;28;20463;-71
2021/12/27 06:33:31;;;;;;;6.30;2.73;;;;;;;;;;5093510;28;20503;-71
2021/12/27 06:35:58;;;;;;;3.00;2.70;;;;;;;;;;5093590;28;20579;-70
2021/12/27 06:38:24;;;;;;;3.23;2.67;;;;;;;;;;5093436;28;20426;-71
2021/12/27 06:40:51;;;;;;;3.27;2.93;;;;;;;;;;5093312;28;20408;-71
2021/12/27 06:43:17;;;;;;;3.23;2.93;;;;;;;;;;5093465;28;20449;-73
2021/12/27 06:45:43;;;;;;;3.43;2.73;;;;;;;;;;5091984;28;20404;-73
2021/12/27 06:48:10;;;;;;;3.47;3.03;;;;;;;;;;5093444;28;20537;-73
2021/12/27 06:50:36;;;;;;;3.27;2.97;;;;;;;;;;5093196;28;20911;-73
2021/12/27 06:53:02;;;;;;;3.07;2.77;;;;;;;;;;5093405;28;20901;-70
2021/12/27 06:55:28;;;;;;;3.20;3.00;;;;;;;;;;5093346;28;20410;-70
2021/12/27 06:57:54;;;;;;;3.77;3.47;;;;;;;;;;5093069;28;20412;-70
2021/12/27 07:00:20;;;;;;;3.33;2.80;;;;;;;;;;5091993;28;20460;-73
2021/12/27 07:02:46;;;;;;;3.47;2.90;;;;;;;;;;5091788;28;20756;-70
2021/12/27 07:05:13;;;;;;;5.50;3.37;;;;;;;;;;5091944;28;20811;-70
2021/12/27 07:07:40;;;;;;;4.43;3.43;;;;;;;;;;5093149;28;20509;-71
2021/12/27 07:10:06;;;;;;;3.43;2.97;;;;;;;;;;5093026;28;20411;-70
2021/12/27 07:12:33;;;;;;;3.53;3.13;;;;;;;;;;5093038;28;20462;-72
2021/12/27 07:14:59;;;;;;;3.70;3.20;;;;;;;;;;5093083;28;20430;-72
2021/12/27 07:17:26;;;;;;;4.93;3.60;;;;;;;;;;5093108;28;20894;-71
2021/12/27 07:19:52;;;;;;;6.40;3.53;;;;;;;;;;5091840;28;20407;-70
2021/12/27 07:22:18;;;;;;;6.20;3.50;;;;;;;;;;5092913;28;20400;-72
2021/12/27 07:24:44;;;;;;;5.07;3.27;;;;;;;;;;5091772;28;20439;-71
2021/12/27 07:27:10;;;;;;;5.13;3.50;;;;;;;;;;5093009;28;20887;-74
2021/12/27 07:29:36;;;;;;;3.60;3.17;;;;;;;;;;5092959;28;20887;-74
2021/12/27 07:32:02;;;;;;;4.93;3.60;;;;;;;;;;5092874;28;20470;-72
2021/12/27 07:34:29;;;;;;;3.53;3.23;;;;;;;;;;5092862;28;20487;-74
2021/12/27 07:36:55;;;;;;;5.43;3.20;;;;;;;;;;5092785;28;20428;-73
2021/12/27 07:39:23;;;;;;;5.10;3.47;;;;;;;;;;5092723;28;20403;-72
2021/12/27 07:41:49;;;;;;;3.70;3.40;;;;;;;;;;5091461;28;20524;-74
2021/12/27 07:44:16;;;;;;;8.67;3.63;;;;;;;;;;5091540;28;20469;-73
2021/12/27 07:46:45;;;;;;;4.13;3.20;;;;;;;;;;5091637;28;20403;-70
2021/12/27 07:49:11;;;;;;;4.60;3.57;;;;;;;;;;5092857;28;20527;-70
2021/12/27 07:51:37;;;;;;;4.70;3.57;;;;;;;;;;5092715;28;20467;-71
2021/12/27 07:54:04;;;;;;;5.40;3.33;;;;;;;;;;5092732;28;20496;-71
2021/12/27 07:56:30;;;;;;;4.77;3.50;;;;;;;;;;5091638;28;20742;-71
2021/12/27 07:58:56;;;;;;;3.53;3.00;;;;;;;;;;5096263;28;20941;-71
2021/12/27 08:01:23;;;;;;;4.23;3.63;;;;;;;;;;5096361;28;20404;-70
2021/12/27 08:03:49;;;;;;;3.73;3.43;;;;;;;;;;5096244;28;20406;-71
2021/12/27 08:06:15;;;;;;;3.27;2.67;;;;;;;;;;5096281;28;20879;-71
2021/12/27 08:08:41;;;;;;;3.30;3.00;;;;;;;;;;5096228;28;20485;-71
2021/12/27 08:11:07;;;;;;;3.50;3.20;;;;;;;;;;5096057;28;20474;-71
2021/12/27 08:13:33;;;;;;;4.73;3.20;;;;;;;;;;5094932;28;20812;-71
2021/12/27 08:16:00;;;;;;;3.40;2.93;;;;;;;;;;5096153;28;20428;-74
2021/12/27 08:18:26;;;;;;;3.70;3.30;;;;;;;;;;5096258;28;20931;-74
2021/12/27 08:20:52;;;;;;;3.80;2.87;;;;;;;;;;5095904;28;20402;-74
2021/12/27 08:23:18;;;;;;;3.70;3.07;;;;;;;;;;5095926;28;20412;-71
2021/12/27 08:25:44;;;;;;;3.30;3.10;;;;;;;;;;5095905;28;20400;-71
2021/12/27 08:28:10;;;;;;;3.83;2.90;;;;;;;;;;5095801;28;20391;-73
2021/12/27 08:30:36;;;;;;;3.37;3.07;;;;;;;;;;5094426;28;20403;-73
2021/12/27 08:33:02;;;;;;;5.40;3.10;;;;;;;;;;5095816;28;20892;-74
2021/12/27 08:35:28;;;;;;;3.40;3.10;;;;;;;;;;5095743;28;20518;-74
2021/12/27 08:37:54;;;;;;;3.20;2.90;;;;;;;;;;5094305;28;20432;-74
2021/12/27 08:40:20;;;;;;;3.57;2.90;;;;;;;;;;5095612;28;20407;-75
2021/12/27 08:42:46;;;;;;;3.13;2.90;;;;;;;;;;5095579;28;20396;-75
2021/12/27 08:45:13;;;;;;;4.27;3.30;;;;;;;;;;5094360;28;20404;-75
2021/12/27 08:47:40;;;;;;;4.67;3.10;;;;;;;;;;5095418;28;20482;-75
2021/12/27 08:50:07;;;;;;;4.77;3.00;;;;;;;;;;5095481;28;20852;-74
2021/12/27 08:52:34;;;;;;;3.70;3.40;;;;;;;;;;5095218;28;20613;-75
2021/12/27 08:55:03;;;;;;;4.47;3.50;;;;;;;;;;5095465;28;20897;-75
2021/12/27 08:57:30;;;;;;;4.47;3.30;;;;;;;;;;5095354;28;20399;-73
2021/12/27 08:59:56;;;;;;;4.43;3.70;;;;;;;;;;5093905;28;20451;-75
2021/12/27 09:02:22;;;;;;;3.57;3.27;;;;;;;;;;5093881;28;20899;-73
2021/12/27 09:04:50;;;;;;;3.57;3.27;;;;;;;;;;5095106;28;20429;-73
2021/12/27 09:07:16;;;;;;;4.13;3.70;;;;;;;;;;5093849;28;20423;-74
2021/12/27 09:09:44;;;;;;;4.60;3.57;;;;;;;;;;5094930;28;20967;-75
2021/12/27 09:12:11;;;;;;;3.33;3.03;;;;;;;;;;5095041;28;20501;-74
2021/12/27 09:14:37;;;;;;;4.43;4.03;;;;;;;;;;5093758;28;20408;-73
2021/12/27 09:17:03;;;;;;;4.10;3.33;;;;;;;;;;5095048;28;20408;-74
2021/12/27 09:19:29;;;;;;;5.90;4.70;;;;;;;;;;5095057;28;20399;-71
2021/12/27 09:21:56;;;;;;;4.17;3.70;;;;;;;;;;5094641;28;20483;-70
2021/12/27 09:24:22;;;;;;;5.90;3.90;;;;;;;;;;5094820;28;20404;-70
2021/12/27 09:26:48;;;;;;;7.10;4.43;;;;;;;;;;5094786;28;20408;-71
2021/12/27 09:29:14;;;;;;;4.67;4.27;;;;;;;;;;5094658;28;20883;-71
2021/12/27 09:31:40;;;;;;;4.47;3.77;;;;;;;;;;5093374;28;20467;-71
2021/12/27 09:34:06;;;;;;;6.00;4.00;;;;;;;;;;5094587;28;20963;-71
2021/12/27 09:36:33;;;;;;;5.00;3.67;;;;;;;;;;5094538;28;20431;-73
2021/12/27 09:38:59;;;;;;;4.50;3.90;;;;;;;;;;5093364;28;20561;-73
2021/12/27 09:41:25;;;;;;;7.70;4.27;;;;;;;;;;5093104;28;20411;-71
2021/12/27 09:43:52;;;;;;;4.63;4.17;;;;;;;;;;5094461;28;20400;-70
2021/12/27 09:46:19;;;;;;;4.70;4.20;;;;;;;;;;5094415;28;20886;-71
2021/12/27 09:48:45;;;;;;;4.80;4.27;;;;;;;;;;5093014;28;20920;-70
2021/12/27 09:51:11;;;;;;;4.27;3.87;;;;;;;;;;5094316;28;20477;-70
2021/12/27 09:53:38;;;;;;;3.80;3.40;;;;;;;;;;5092958;28;20747;-70
2021/12/27 09:56:08;;;;;;;5.00;3.30;;;;;;;;;;5094291;28;20453;-70
2021/12/27 09:58:34;;;;;;;4.50;3.57;;;;;;;;;;5092669;28;20458;-71
2021/12/27 10:01:03;;;;;;;3.20;2.90;;;;;;;;;;5094062;28;20416;-71
2021/12/27 10:03:29;;;;;;;5.50;3.10;;;;;;;;;;5094224;28;20490;-71
2021/12/27 10:06:04;;;;;;;5.87;3.30;;;;;;;;;;5094107;28;20399;-71
2021/12/27 10:08:32;;;;;;;3.83;3.03;;;;;;;;;;5094052;28;20506;-71
2021/12/27 10:10:58;;;;;;;4.20;3.47;;;;;;;;;;5092789;28;20451;-73
2021/12/27 10:13:25;;;;;;;3.13;2.77;;;;;;;;;;5094541;28;20412;-73
2021/12/27 10:15:51;;;;;;;2.80;2.60;;;;;;;;;;5093714;28;20905;-73
2021/12/27 10:18:18;;;;;;;3.73;2.50;;;;;;;;;;5093851;28;20411;-72
2021/12/27 10:20:45;;;;;;;3.57;3.17;;;;;;;;;;5093484;28;20953;-73
2021/12/27 10:23:12;;;;;;;4.10;2.80;;;;;;;;;;5093672;28;20436;-73
2021/12/27 10:25:38;;;;;;;4.43;2.97;;;;;;;;;;5092460;28;20812;-73
2021/12/27 10:28:05;;;;;;;3.77;3.00;;;;;;;;;;5093642;28;20497;-73
2021/12/27 10:30:36;;;;;;;3.53;3.23;;;;;;;;;;5092275;28;20483;-74
2021/12/27 10:33:16;;;;;;;4.40;3.37;;;;;;;;;;5092347;28;20411;-73
2021/12/27 10:35:50;;;;;;;3.37;3.00;;;;;;;;;;5093563;28;20495;-73
2021/12/27 10:38:23;;;;;;;3.17;2.87;;;;;;;;;;5093374;28;20765;-74
2021/12/27 10:40:59;;;;;;;3.73;3.43;;;;;;;;;;5093357;28;20435;-74
2021/12/27 10:43:36;;;;;;;3.10;2.80;;;;;;;;;;5093280;28;20402;-73
2021/12/27 10:46:04;;;;;;;3.20;2.90;;;;;;;;;;5092082;28;20423;-73
2021/12/27 10:48:41;;;;;;;3.33;3.03;;;;;;;;;;5093276;28;20443;-74
2021/12/27 10:51:07;;;;;;;3.00;2.80;;;;;;;;;;5092024;28;20540;-73
2021/12/27 10:53:49;;;;;;;3.63;2.97;;;;;;;;;;5093298;28;20487;-73
2021/12/27 10:56:16;;;;;;;2.77;2.57;;;;;;;;;;5091977;28;20414;-74
2021/12/27 10:59:01;;;;;;;3.60;3.30;;;;;;;;;;5092911;28;20452;-74
2021/12/27 11:01:28;;;;;;;3.57;3.23;;;;;;;;;;5091800;28;20959;-74
2021/12/27 11:04:03;;;;;;;3.97;3.30;;;;;;;;;;5091933;28;20408;-75
2021/12/27 11:06:30;;;;;;;3.33;2.97;;;;;;;;;;5091903;28;20423;-75
2021/12/27 11:08:58;;;;;;;6.07;3.20;;;;;;;;;;5091753;28;20548;-74
2021/12/27 11:11:25;;;;;;;3.30;3.00;;;;;;;;;;5091826;28;20472;-74
2021/12/27 11:13:52;;;;;;;3.00;2.70;;;;;;;;;;5093102;28;20946;-75
2021/12/27 11:16:18;;;;;;;4.33;2.63;;;;;;;;;;5093193;28;20477;-74
2021/12/27 11:18:45;;;;;;;10.07;7.10;;;;;;;;;;5093030;28;20415;-75
2021/12/27 11:21:13;;;;;;;4.93;3.63;;;;;;;;;;5093080;28;20482;-74
2021/12/27 11:23:41;;;;;;;3.40;3.03;;;;;;;;;;5092946;28;20495;-74
2021/12/27 11:26:08;;;;;;;3.77;2.67;;;;;;;;;;5093027;28;20407;-73
2021/12/27 11:28:35;;;;;;;3.70;3.27;;;;;;;;;;5093014;28;20404;-74
2021/12/27 11:31:25;;;;;;;2.80;2.57;;;;;;;;;;5092797;28;20451;-75
2021/12/27 11:33:57;;;;;;;4.40;2.80;;;;;;;;;;5097064;28;20400;-74
2021/12/27 11:36:24;;;;;;;5.53;3.73;;;;;;;;;;5095511;28;20419;-73
2021/12/27 11:38:51;;;;;;;3.50;3.17;;;;;;;;;;5096765;28;20464;-74
2021/12/27 11:41:28;;;;;;;2.83;2.63;;;;;;;;;;5096792;28;20453;-74
2021/12/27 11:43:56;;;;;;;2.90;2.70;;;;;;;;;;5096773;28;20403;-74
2021/12/27 11:46:24;;;;;;;3.00;2.80;;;;;;;;;;5096746;28;20746;-74
2021/12/27 11:48:51;;;;;;;3.03;2.70;;;;;;;;;;5096653;28;20406;-75
2021/12/27 11:51:18;;;;;;;2.70;2.47;;;;;;;;;;5096370;28;20589;-74
2021/12/27 11:53:48;;;;;;;2.50;2.30;;;;;;;;;;5096492;28;20423;-73
2021/12/27 11:56:19;;;;;;;5.00;2.60;;;;;;;;;;5095372;28;20407;-74
2021/12/27 11:58:46;;;;;;;2.70;2.50;;;;;;;;;;5096166;28;20483;-74
2021/12/27 12:01:21;;;;;;;3.73;3.13;;;;;;;;;;5096388;28;20408;-73
2021/12/27 12:03:48;;;;;;;3.93;2.87;;;;;;;;;;5096292;28;20402;-74
2021/12/27 12:06:32;;;;;;;2.97;2.67;;;;;;;;;;5096280;28;20767;-73
2021/12/27 12:09:01;;;;;;;3.50;2.40;;;;;;;;;;5096143;28;20407;-73
2021/12/27 12:11:32;;;;;;;3.60;2.70;;;;;;;;;;5094716;28;20546;-71
2021/12/27 12:13:59;;;;;;;3.20;2.90;;;;;;;;;;5096248;28;20401;-73
2021/12/27 12:16:26;;;;;;;3.20;3.00;;;;;;;;;;5096091;28;20472;-73
2021/12/27 12:18:52;;;;;;;3.43;3.13;;;;;;;;;;5096079;28;20499;-73
2021/12/27 12:21:33;;;;;;;4.20;3.80;;;;;;;;;;5095934;28;20499;-72
2021/12/27 12:24:01;;;;;;;4.30;2.87;;;;;;;;;;5095905;28;20402;-71
2021/12/27 12:26:31;;;;;;;3.60;3.30;;;;;;;;;;5095918;28;20449;-72
2021/12/27 12:29:01;;;;;;;4.40;3.47;;;;;;;;;;5095847;28;20402;-73
2021/12/27 12:31:35;;;;;;;3.90;3.50;;;;;;;;;;5095690;28;20471;-70
2021/12/27 12:34:18;;;;;;;3.77;3.40;;;;;;;;;;5095730;28;20392;-73
2021/12/27 12:36:52;;;;;;;3.40;3.10;;;;;;;;;;5094350;28;20527;-71
2021/12/27 12:39:19;;;;;;;4.73;3.93;;;;;;;;;;5095654;28;20406;-72
2021/12/27 12:41:46;;;;;;;4.73;4.33;;;;;;;;;;5095406;28;20431;-71
2021/12/27 12:44:12;;;;;;;4.10;3.33;;;;;;;;;;5095082;28;20408;-71
2021/12/27 12:46:48;;;;;;;3.90;3.50;;;;;;;;;;5095672;28;20404;-72
2021/12/27 12:49:16;;;;;;;4.27;3.87;;;;;;;;;;5095453;28;20909;-72
2021/12/27 12:51:42;;;;;;;3.50;3.20;;;;;;;;;;5093960;28;20460;-72
2021/12/27 12:54:14;;;;;;;5.37;4.30;;;;;;;;;;5095368;28;20415;-71
2021/12/27 12:56:40;;;;;;;3.27;2.93;;;;;;;;;;5095202;28;20404;-71
2021/12/27 12:59:16;;;;;;;3.73;3.20;;;;;;;;;;5094973;28;20452;-73
2021/12/27 13:01:55;;;;;;;3.40;2.83;;;;;;;;;;5095027;28;20739;-73
2021/12/27 13:04:21;;;;;;;3.33;3.03;;;;;;;;;;5095203;28;20408;-74
2021/12/27 13:06:47;;;;;;;2.97;2.70;;;;;;;;;;5094974;28;20437;-72
2021/12/27 13:09:13;;;;;;;3.23;2.93;;;;;;;;;;5094979;28;20412;-74
2021/12/27 13:11:39;;;;;;;3.27;2.97;;;;;;;;;;5095167;28;20977;-73
2021/12/27 13:14:05;;;;;;;3.10;2.83;;;;;;;;;;5095004;28;20412;-74
2021/12/27 13:16:33;;;;;;;3.67;3.00;;;;;;;;;;5095011;28;20774;-74
2021/12/27 13:19:06;;;;;;;3.83;2.90;;;;;;;;;;5094958;28;20412;-74
2021/12/27 13:21:33;;;;;;;3.50;2.97;;;;;;;;;;5094836;28;20431;-73
2021/12/27 13:24:03;;;;;;;3.43;3.03;;;;;;;;;;5093551;28;21008;-74
2021/12/27 13:26:29;;;;;;;2.90;2.70;;;;;;;;;;5094740;28;20406;-74
2021/12/27 13:28:55;;;;;;;3.60;3.30;;;;;;;;;;5093568;28;20416;-73
2021/12/27 13:31:25;;;;;;;4.27;3.43;;;;;;;;;;5094701;28;20455;-74
2021/12/27 13:34:02;;;;;;;4.23;3.30;;;;;;;;;;5094667;28;20433;-74
2021/12/27 13:36:38;;;;;;;3.40;3.10;;;;;;;;;;5094484;28;20878;-74
2021/12/27 13:39:13;;;;;;;3.20;2.80;;;;;;;;;;5094567;28;20447;-75
2021/12/27 13:41:40;;;;;;;2.80;2.50;;;;;;;;;;5094470;28;20959;-74
2021/12/27 13:44:08;;;;;;;2.73;2.53;;;;;;;;;;5094540;28;20396;-74
2021/12/27 13:46:36;;;;;;;3.40;2.93;;;;;;;;;;5093150;28;20452;-74
2021/12/27 13:49:03;;;;;;;2.83;2.63;;;;;;;;;;5093057;28;20477;-75
2021/12/27 13:51:31;;;;;;;2.80;2.60;;;;;;;;;;5092917;28;20455;-74
2021/12/27 13:54:00;;;;;;;2.73;2.53;;;;;;;;;;5093947;28;20422;-74
2021/12/27 13:56:27;;;;;;;3.20;2.90;;;;;;;;;;5093816;28;20414;-75
2021/12/27 13:58:53;;;;;;;3.03;2.77;;;;;;;;;;5092681;28;20463;-74
2021/12/27 14:01:21;;;;;;;4.27;2.90;;;;;;;;;;5093996;28;20845;-75
2021/12/27 14:03:52;;;;;;;3.10;2.70;;;;;;;;;;5092869;28;20753;-75
2021/12/27 14:06:19;;;;;;;3.10;2.80;;;;;;;;;;5094071;28;20404;-74
2021/12/27 14:08:53;;;;;;;3.00;2.80;;;;;;;;;;5092603;28;20827;-74
2021/12/27 14:11:21;;;;;;;3.93;2.93;;;;;;;;;;5093951;28;20479;-72
2021/12/27 14:13:58;;;;;;;3.70;3.40;;;;;;;;;;5093912;28;20886;-73
2021/12/27 14:16:38;;;;;;;3.57;3.03;;;;;;;;;;5093889;28;20408;-71
2021/12/27 14:19:12;;;;;;;3.40;3.10;;;;;;;;;;5093782;28;20399;-74
2021/12/27 14:21:56;;;;;;;7.03;3.10;;;;;;;;;;5092387;28;20899;-73
2021/12/27 14:24:32;;;;;;;4.70;2.97;;;;;;;;;;5092416;28;20411;-73
2021/12/27 14:26:58;;;;;;;2.83;2.63;;;;;;;;;;5093582;28;20398;-71
2021/12/27 14:29:25;;;;;;;6.23;2.93;;;;;;;;;;5093600;28;20399;-70
2021/12/27 14:31:55;;;;;;;5.80;3.00;;;;;;;;;;5093594;28;21022;-71
2021/12/27 14:34:40;;;;;;;3.57;3.23;;;;;;;;;;5092346;28;20770;-71
2021/12/27 14:37:06;;;;;;;3.23;2.93;;;;;;;;;;5093450;28;20476;-71
2021/12/27 14:39:33;;;;;;;3.30;2.70;;;;;;;;;;5093378;28;20395;-71
2021/12/27 14:41:59;;;;;;;3.23;2.90;;;;;;;;;;5092063;28;20451;-72
2021/12/27 14:44:25;;;;;;;3.90;3.20;;;;;;;;;;5093404;28;20395;-72
2021/12/27 14:46:53;;;;;;;3.33;2.80;;;;;;;;;;5093424;28;21042;-71
2021/12/27 14:49:19;;;;;;;4.87;3.80;;;;;;;;;;5093478;28;20883;-71
2021/12/27 14:51:45;;;;;;;3.20;2.90;;;;;;;;;;5093394;28;20463;-71